Stations météo

Publicité
Chateau Chinon, France (7270): Température de l'air & dewpoint: 20.06.2019 20:00:00 - 26.06.2019 20:00:00 (CEST)Chateau Chinon, France (7270): Vitesse du vent & gusts: 20.06.2019 20:00:00 - 26.06.2019 20:00:00 (CEST)Chateau Chinon, France (7270): Direction du vent: 20.06.2019 20:00:00 - 26.06.2019 20:00:00 (CEST)Chateau Chinon, France (7270): Quantités de précipitations: 20.06.2019 20:00:00 - 26.06.2019 20:00:00 (CEST)
Date & Time tt [°C] td [°C] ff [km/h] ff [knt] fx [km/h] fx [knt] dd rr [mm]
26.06.2019 20:00:00 31,2 19,9 2 1 15 8 E -
26.06.2019 19:00:00 33,7 21,5 0 0 9 5 N 0,0
26.06.2019 18:00:00 34,3 19,2 2 1 16 9 ENE 0,0
26.06.2019 17:00:00 34,6 18,2 0 0 11 6 N 0,0
26.06.2019 16:00:00 33,8 17,9 4 2 13 7 E 0,0
26.06.2019 15:00:00 33,0 17,2 4 2 13 7 ENE 0,0
26.06.2019 14:00:00 32,3 17,4 4 2 15 8 NNE -
26.06.2019 13:00:00 31,8 13,5 4 2 16 9 ESE 0,0
26.06.2019 12:00:00 30,9 16,9 4 2 16 9 SSE 0,0
26.06.2019 11:00:00 29,7 17,2 4 2 21 11 SE 0,0
26.06.2019 10:00:00 27,9 19,1 5 3 22 12 E 0,0
26.06.2019 09:00:00 25,8 18,5 5 3 28 15 E 0,0
26.06.2019 08:00:00 24,0 17,7 8 4 28 15 E -
26.06.2019 07:00:00 21,2 16,4 8 4 29 16 E 0,0
26.06.2019 06:00:00 20,3 16,1 5 3 28 15 E 0,0
26.06.2019 05:00:00 20,9 16,1 5 3 22 12 E 0,0
26.06.2019 04:00:00 21,3 15,8 5 3 28 15 E 0,0
26.06.2019 03:00:00 21,5 15,3 5 3 24 13 E 0,0
26.06.2019 02:00:00 21,7 16,0 4 2 24 13 E -
26.06.2019 01:00:00 22,1 16,4 4 2 26 14 E 0,0
26.06.2019 00:00:00 21,7 16,6 5 3 21 11 E 0,0
25.06.2019 23:00:00 21,7 16,9 4 2 8 4 E 0,0
25.06.2019 22:00:00 22,8 14,9 0 0 11 6 N 0,0
25.06.2019 21:00:00 25,2 13,1 0 0 9 5 N 0,0
25.06.2019 20:00:00 28,5 15,1 2 1 11 6 NNW -
25.06.2019 19:00:00 30,9 15,7 2 1 13 7 N 0,0
25.06.2019 18:00:00 30,8 14,8 2 1 18 10 NNW 0,0
25.06.2019 17:00:00 30,6 15,5 5 3 16 9 SSW 0,0
25.06.2019 16:00:00 29,6 15,3 4 2 16 9 W 0,0
25.06.2019 15:00:00 29,1 16,3 4 2 22 12 W 0,0
25.06.2019 14:00:00 27,7 14,3 8 4 22 12 SSW -
25.06.2019 13:00:00 28,2 13,3 4 2 15 8 WSW 0,0
25.06.2019 12:00:00 27,2 14,6 2 1 21 11 NW 0,0
25.06.2019 11:00:00 26,1 12,5 8 4 29 16 SW 0,0
25.06.2019 10:00:00 24,2 12,8 15 8 35 19 SSW 0,0
25.06.2019 09:00:00 23,3 12,3 11 6 28 15 SSW 0,0
25.06.2019 08:00:00 22,6 11,6 11 6 24 13 SSW -
25.06.2019 07:00:00 21,4 12,0 8 4 18 10 SSW 0,0
25.06.2019 06:00:00 20,6 11,8 4 2 18 10 S 0,0
25.06.2019 05:00:00 20,2 11,7 4 2 18 10 SE 0,0
25.06.2019 04:00:00 20,2 12,4 4 2 21 11 ESE 0,0
25.06.2019 03:00:00 21,9 11,6 4 2 18 10 S 0,0
25.06.2019 02:00:00 23,4 11,4 8 4 26 14 SSW -
25.06.2019 01:00:00 21,2 14,1 4 2 22 12 SE 0,0
25.06.2019 00:00:00 22,5 14,6 8 4 29 16 SE 0,0
24.06.2019 23:00:00 21,5 14,9 8 4 28 15 E 0,0
24.06.2019 22:00:00 21,3 15,2 5 3 22 12 E 0,0
24.06.2019 21:00:00 22,9 16,0 4 2 22 12 E 0,0
24.06.2019 20:00:00 25,3 16,2 8 4 29 16 E -
24.06.2019 19:00:00 27,5 17,4 4 2 29 16 E 0,0
24.06.2019 18:00:00 27,0 16,3 4 2 31 17 E 0,0
24.06.2019 17:00:00 29,3 17,2 4 2 21 11 E 0,0
24.06.2019 16:00:00 29,7 17,8 4 2 18 10 E 0,0
24.06.2019 15:00:00 30,1 15,8 4 2 15 8 ENE 0,0
24.06.2019 14:00:00 29,8 14,7 2 1 13 7 E -
24.06.2019 13:00:00 29,3 13,1 4 2 9 5 SE 0,0
24.06.2019 12:00:00 27,8 17,6 4 2 9 5 SSW 0,0
24.06.2019 11:00:00 27,0 17,8 4 2 11 6 SSW 0,0
24.06.2019 10:00:00 25,6 17,5 2 1 13 7 ESE 0,0
24.06.2019 09:00:00 24,9 16,9 2 1 15 8 E 0,0
24.06.2019 08:00:00 21,6 15,9 5 3 18 10 ESE -
24.06.2019 07:00:00 18,2 14,3 5 3 16 9 ESE 0,0
24.06.2019 06:00:00 17,6 13,9 5 3 18 10 ESE 0,0
24.06.2019 05:00:00 18,0 13,5 8 4 21 11 ESE 0,0
24.06.2019 04:00:00 18,2 14,1 8 4 16 9 ESE 0,0
24.06.2019 03:00:00 18,2 14,5 5 3 16 9 ESE 0,0
24.06.2019 02:00:00 18,2 14,1 5 3 18 10 ESE -
24.06.2019 01:00:00 17,9 14,2 4 2 22 12 E 0,0
24.06.2019 00:00:00 18,2 14,3 5 3 18 10 E 0,0
23.06.2019 23:00:00 18,0 14,5 4 2 15 8 E 0,0
23.06.2019 22:00:00 18,6 14,9 4 2 16 9 E 0,0
23.06.2019 21:00:00 20,0 14,8 4 2 15 8 E 0,0
23.06.2019 20:00:00 25,4 15,7 2 1 13 7 ESE -
23.06.2019 19:00:00 25,4 15,7 5 3 16 9 ESE 0,0
23.06.2019 18:00:00 23,5 15,5 4 2 15 8 ESE 0,0
23.06.2019 17:00:00 25,7 15,7 2 1 21 11 E 0,0
23.06.2019 16:00:00 26,6 16,5 2 1 16 9 E 0,0
23.06.2019 15:00:00 25,7 17,1 4 2 13 7 ENE 0,0
23.06.2019 14:00:00 25,5 17,7 4 2 15 8 ENE -
23.06.2019 13:00:00 24,3 17,3 4 2 18 10 ENE 0,0
23.06.2019 12:00:00 23,7 16,5 4 2 16 9 E 0,0
23.06.2019 11:00:00 22,2 16,5 4 2 16 9 ENE 0,0
23.06.2019 10:00:00 21,3 17,1 2 1 18 10 ENE 0,0
23.06.2019 09:00:00 19,0 15,7 4 2 29 16 E 0,0
23.06.2019 08:00:00 16,1 14,5 5 3 22 12 E -
23.06.2019 07:00:00 13,0 12,8 4 2 18 10 E 0,0
23.06.2019 06:00:00 11,9 11,6 4 2 24 13 E 0,0
23.06.2019 05:00:00 12,5 12,3 5 3 21 11 E 0,0
23.06.2019 04:00:00 12,5 12,3 4 2 22 12 E 0,2
23.06.2019 03:00:00 12,7 12,5 4 2 13 7 E 0,0
23.06.2019 02:00:00 12,8 12,6 4 2 15 8 ESE -
23.06.2019 01:00:00 12,5 12,3 2 1 11 6 E 0,0
23.06.2019 00:00:00 12,7 12,5 2 1 5 3 E 0,0
22.06.2019 23:00:00 12,6 12,0 0 0 5 3 N 0,0
22.06.2019 22:00:00 14,0 13,4 2 1 8 4 E 0,0
22.06.2019 21:00:00 14,6 13,5 2 1 15 8 NE 0,0
22.06.2019 20:00:00 16,9 14,2 4 2 11 6 ENE -
22.06.2019 19:00:00 15,7 13,9 2 1 11 6 ENE 0,0
22.06.2019 18:00:00 16,5 14,3 4 2 13 7 NE 0,0
22.06.2019 17:00:00 14,3 13,5 2 1 8 4 E 0,0
22.06.2019 16:00:00 14,5 12,7 2 1 8 4 E 0,0
22.06.2019 15:00:00 13,0 12,4 2 1 11 6 E 1,0
22.06.2019 14:00:00 12,5 11,9 4 2 15 8 N -
22.06.2019 13:00:00 13,3 12,7 2 1 11 6 NNW 0,0
22.06.2019 12:00:00 13,5 13,0 2 1 11 6 NW 0,0
22.06.2019 11:00:00 13,3 12,8 2 1 8 4 NW 0,0
22.06.2019 10:00:00 13,0 12,7 0 0 8 4 N 0,0
22.06.2019 09:00:00 12,0 11,8 2 1 8 4 W 0,6
22.06.2019 08:00:00 11,8 11,6 2 1 9 5 W -
22.06.2019 07:00:00 11,1 10,9 2 1 21 11 E 6,0
22.06.2019 06:00:00 10,8 10,6 8 4 24 13 ENE 3,0
22.06.2019 05:00:00 10,8 10,5 5 3 22 12 ENE 10,0
22.06.2019 04:00:00 11,9 10,1 5 3 26 14 ENE 1,0
22.06.2019 03:00:00 13,4 8,2 8 4 24 13 NE 0,0
22.06.2019 02:00:00 13,9 8,3 8 4 35 19 ENE -
22.06.2019 01:00:00 14,3 8,5 8 4 34 18 ENE 0,0
22.06.2019 00:00:00 14,7 9,1 8 4 34 18 ENE 0,0
21.06.2019 23:00:00 15,2 9,5 8 4 35 19 NE 0,0
21.06.2019 22:00:00 16,2 10,1 5 3 24 13 NE 0,0
21.06.2019 21:00:00 16,8 9,9 8 4 22 12 NNE 0,0
21.06.2019 20:00:00 17,8 10,7 4 2 29 16 NNE -
21.06.2019 19:00:00 18,6 11,2 4 2 22 12 NE 0,0
21.06.2019 18:00:00 18,9 11,9 4 2 18 10 NE 0,0
21.06.2019 17:00:00 19,4 11,9 4 2 18 10 NE 0,0
21.06.2019 16:00:00 20,8 12,2 5 3 24 13 NE 0,0
21.06.2019 15:00:00 20,5 11,1 5 3 24 13 NNE 0,0
21.06.2019 14:00:00 20,0 12,2 5 3 22 12 N -
21.06.2019 13:00:00 19,2 12,2 5 3 18 10 N 0,0
21.06.2019 12:00:00 18,4 11,9 4 2 18 10 ENE 0,0
21.06.2019 11:00:00 18,0 11,3 5 3 21 11 ENE 0,0
21.06.2019 10:00:00 16,5 11,4 4 2 22 12 ENE 0,0
21.06.2019 09:00:00 15,2 10,8 5 3 24 13 ENE 0,0
21.06.2019 08:00:00 14,9 12,0 0 0 13 7 N -
21.06.2019 07:00:00 13,0 11,7 2 1 13 7 E 0,0
21.06.2019 06:00:00 12,1 10,8 2 1 11 6 E 0,0
21.06.2019 05:00:00 12,2 11,3 2 1 5 3 E 0,0
21.06.2019 04:00:00 12,7 11,6 2 1 13 7 E 0,0
21.06.2019 03:00:00 12,9 11,1 4 2 15 8 E 0,0
21.06.2019 02:00:00 12,7 11,3 4 2 15 8 E -
21.06.2019 01:00:00 12,9 12,1 4 2 13 7 E 0,0
21.06.2019 00:00:00 13,8 12,4 4 2 8 4 ESE 0,0
20.06.2019 23:00:00 14,1 12,5 4 2 8 4 E 0,0
20.06.2019 22:00:00 14,5 11,8 4 2 8 4 NNE 0,0
20.06.2019 21:00:00 15,9 12,6 0 0 8 4 N 0,0
20.06.2019 20:00:00 17,6 13,3 0 0 11 6 N -

tt = Température de l'air
td = dewpoint
ff = Vitesse du vent
fx = gusts
dd = Direction du vent
rr = Quantités de précipitations

stations d'obs. à proximité